In Rescue
 
Open Full Screen Window  High Contrast Mode
Wind Gusting 00 knots
03
July 23, 2019 12:43 AM CDT
Weather Information
Wind Direction
  210 °
Wind Speed
  03 kt (3 mph)
Wind Gust
  00 kt (0 mph)
Altimeter
30.29 in
Visibility
10 SM
Temperature
16° C
61° F
Dewpoint
13° C
55° F
Humidity
83%
1hr Rain Fall
00.00 in.
24hr Rain Fall
00.00 in.
Sky Condition
Clear
VFR

METAR KCNB 230543Z AUTO 21003KT 10SM CLR 16/13 A3029 RMK AO2 T01570125

FAA Disclaimer: The data displayed is for advisory purposes only and is not to be used for flight planning or operations.